Time;durP1;ratioP1;P1;durP2;ratioP2;P2;SDS_P1;SDS_P2;PMS_P1;PMS_P2;Temp;Humidity;BMP_temperature;BMP_pressure;BME280_temperature;BME280_humidity;BME280_pressure;Samples;Min_cycle;Max_cycle;Signal;HPM_P1;HPM_P2
2023/03/17 00:01:43;;;;;;;4.80;2.30;;;;;;;-0.93;84.68;99387.24;105189;1263;74632;-25
2023/03/17 00:04:12;;;;;;;4.00;2.50;;;;;;;-0.56;82.30;99381.88;104993;1263;75644;-25
2023/03/17 00:06:41;;;;;;;5.70;2.60;;;;;;;-0.67;81.85;99379.14;105083;1263;74055;-25
2023/03/17 00:09:15;;;;;;;5.20;2.40;;;;;;;-0.81;82.09;99380.58;104773;1263;61082;-25
2023/03/17 00:11:44;;;;;;;8.60;2.60;;;;;;;-1.03;82.59;99383.43;105165;1263;61077;-25
2023/03/17 00:14:16;;;;;;;4.90;2.80;;;;;;;-1.28;83.61;99385.15;105227;1263;74397;-25
2023/03/17 00:16:50;;;;;;;6.10;2.20;;;;;;;-1.23;83.96;99387.38;105222;1263;75912;-25
2023/03/17 00:19:32;;;;;;;3.60;1.90;;;;;;;-0.76;82.05;99385.55;104999;1263;74006;-25
2023/03/17 00:22:01;;;;;;;4.00;2.30;;;;;;;-0.66;80.90;99387.29;104794;1263;61918;-25
2023/03/17 00:24:30;;;;;;;4.20;2.00;;;;;;;-0.81;80.69;99392.17;105796;1251;61152;-25
2023/03/17 00:27:01;;;;;;;7.60;3.00;;;;;;;-1.02;81.27;99397.20;105936;1256;74510;-25
2023/03/17 00:29:31;;;;;;;8.50;3.20;;;;;;;-1.29;82.16;99393.17;105955;1254;75448;-25
2023/03/17 00:32:00;;;;;;;4.40;1.80;;;;;;;-1.46;83.40;99394.81;105921;1253;74332;-25
2023/03/17 00:34:30;;;;;;;8.80;2.70;;;;;;;-1.33;83.02;99395.85;105915;1251;61650;-25
2023/03/17 00:37:00;;;;;;;5.50;2.10;;;;;;;-0.84;80.76;99394.47;105753;1256;61618;-25
2023/03/17 00:39:29;;;;;;;3.60;2.30;;;;;;;-0.85;79.93;99396.88;105687;1251;75289;-26
2023/03/17 00:41:58;;;;;;;5.40;2.60;;;;;;;-0.95;79.89;99398.54;105628;1253;75911;-25
2023/03/17 00:44:27;;;;;;;3.60;2.30;;;;;;;-1.19;80.45;99402.77;105790;1251;74118;-25
2023/03/17 00:46:57;;;;;;;2.80;1.90;;;;;;;-1.41;81.41;99407.63;105852;1252;60972;-25
2023/03/17 00:49:28;;;;;;;7.20;2.10;;;;;;;-1.57;81.90;99403.11;105616;1252;61145;-25
2023/03/17 00:51:57;;;;;;;3.70;2.30;;;;;;;-1.54;82.27;99406.95;105934;1253;74300;-25
2023/03/17 00:54:27;;;;;;;5.20;2.00;;;;;;;-1.09;80.37;99403.52;105753;1252;75773;-25
2023/03/17 00:56:59;;;;;;;3.40;2.10;;;;;;;-0.91;78.87;99400.63;105778;1253;74190;-25
2023/03/17 00:59:34;;;;;;;6.70;2.70;;;;;;;-1.21;79.84;99399.60;105718;1252;61115;-25
2023/03/17 01:02:02;;;;;;;6.80;2.40;;;;;;;-1.34;80.25;99401.30;105727;1257;61543;-25
2023/03/17 01:04:32;;;;;;;8.20;2.30;;;;;;;-1.50;80.53;99401.73;105886;1251;74498;-25
2023/03/17 01:07:02;;;;;;;8.50;2.60;;;;;;;-1.71;81.44;99404.14;105819;1256;75107;-25
2023/03/17 01:09:32;;;;;;;3.50;2.00;;;;;;;-1.75;81.53;99402.18;105685;1253;73999;-25
2023/03/17 01:12:01;;;;;;;7.10;1.80;;;;;;;-1.36;80.26;99407.50;105703;1256;61129;-25
2023/03/17 01:14:30;;;;;;;3.70;2.40;;;;;;;-1.10;78.87;99413.08;105734;1253;61835;-25
2023/03/17 01:17:01;;;;;;;6.70;2.50;;;;;;;-1.14;78.81;99411.00;105798;1253;73288;-26
2023/03/17 01:19:35;;;;;;;5.10;2.30;;;;;;;-1.30;78.93;99420.27;105907;1253;74923;-25
2023/03/17 01:22:03;;;;;;;3.00;2.00;;;;;;;-1.61;79.96;99417.16;105893;1254;74204;-25
2023/03/17 01:24:32;;;;;;;6.10;2.50;;;;;;;-1.81;81.13;99424.63;105674;1251;61249;-25
2023/03/17 01:27:01;;;;;;;10.80;2.20;;;;;;;-1.92;81.79;99427.12;105745;1253;61799;-25
2023/03/17 01:29:30;;;;;;;4.20;2.00;;;;;;;-1.65;81.33;99429.53;105798;1252;72452;-25
2023/03/17 01:31:59;;;;;;;6.40;2.50;;;;;;;-1.28;79.45;99431.14;105838;1251;75561;-25
2023/03/17 01:34:30;;;;;;;3.60;1.60;;;;;;;-1.41;79.33;99444.42;105551;1257;72358;-25
2023/03/17 01:36:58;;;;;;;3.20;1.80;;;;;;;-1.47;79.51;99443.38;105665;1253;61059;-25
2023/03/17 01:39:27;;;;;;;4.70;2.30;;;;;;;-1.64;80.03;99440.55;105763;1251;61980;-25
2023/03/17 01:42:16;;;;;;;5.90;2.30;;;;;;;-1.85;80.91;99440.92;105781;1252;74761;-25
2023/03/17 01:45:03;;;;;;;1.80;1.20;;;;;;;-1.75;80.96;99446.45;105678;1253;75015;-25
2023/03/17 01:47:32;;;;;;;7.90;2.30;;;;;;;-1.31;79.14;99449.44;105648;1256;74573;-25
2023/03/17 01:50:06;;;;;;;6.30;2.10;;;;;;;-1.44;79.25;99447.21;105767;1251;61485;-25
2023/03/17 01:52:38;;;;;;;4.90;2.10;;;;;;;-1.50;79.47;99446.36;105467;1260;61977;-25
2023/03/17 01:55:13;;;;;;;3.30;1.30;;;;;;;-1.73;80.42;99456.61;105868;1251;74554;-25
2023/03/17 01:57:49;;;;;;;3.60;1.80;;;;;;;-1.84;80.90;99452.81;105670;1253;75766;-25
2023/03/17 02:00:20;;;;;;;6.70;2.30;;;;;;;-1.98;81.68;99458.91;105515;1253;74101;-25
2023/03/17 02:02:51;;;;;;;5.80;2.40;;;;;;;-1.64;80.83;99463.54;105648;1257;61165;-25
2023/03/17 02:05:24;;;;;;;3.90;1.70;;;;;;;-1.32;79.05;99467.34;105492;1253;61119;-25
2023/03/17 02:07:53;;;;;;;;;;;;;;;-1.32;78.87;99468.38;105519;1260;74486;-25
2023/03/17 02:10:27;;;;;;;5.70;2.60;;;;;;;-1.51;78.78;99471.23;105941;1253;75750;-25
2023/03/17 02:12:58;;;;;;;14.00;2.20;;;;;;;-1.82;80.01;99474.36;105875;1255;73208;-25
2023/03/17 02:15:41;;;;;;;6.00;2.50;;;;;;;-2.02;80.92;99475.70;105639;1252;61068;-25
2023/03/17 02:18:14;;;;;;;7.10;2.10;;;;;;;-2.12;81.78;99473.52;105695;1251;61628;-25
2023/03/17 02:20:46;;;;;;;5.40;3.00;;;;;;;-1.70;80.15;99476.13;105642;1255;74544;-25
2023/03/17 02:23:21;;;;;;;5.70;1.80;;;;;;;-1.35;78.77;99474.06;105722;1258;75875;-25
2023/03/17 02:25:51;;;;;;;6.80;3.00;;;;;;;-1.54;78.59;99479.33;105730;1253;73428;-25
2023/03/17 02:28:27;;;;;;;4.10;2.10;;;;;;;-1.74;79.44;99475.70;105686;1253;61087;-25
2023/03/17 02:30:56;;;;;;;7.00;2.30;;;;;;;-1.95;80.31;99481.48;105593;1253;60995;-25
2023/03/17 02:33:26;;;;;;;4.80;2.20;;;;;;;-2.13;81.03;99487.50;105601;1253;74708;-25
2023/03/17 02:36:03;;;;;;;4.70;2.40;;;;;;;-2.27;81.38;99487.13;105574;1257;75912;-25
2023/03/17 02:38:31;;;;;;;5.40;2.00;;;;;;;-2.14;81.56;99493.64;105699;1253;73228;-25
2023/03/17 02:41:02;;;;;;;8.10;3.00;;;;;;;-1.68;79.76;99496.02;105668;1253;61103;-25
2023/03/17 02:43:31;;;;;;;4.30;2.80;;;;;;;-1.52;78.52;99495.12;105654;1253;61184;-25
2023/03/17 02:46:00;;;;;;;6.30;3.10;;;;;;;-1.66;78.86;99493.04;105544;1253;74463;-25
2023/03/17 02:48:30;;;;;;;7.10;2.60;;;;;;;-1.81;79.18;99494.27;105537;1255;76819;-26
2023/03/17 02:50:59;;;;;;;6.80;2.50;;;;;;;-2.05;80.06;99495.48;105675;1253;73238;-25
2023/03/17 02:53:33;;;;;;;5.20;2.40;;;;;;;-2.27;80.89;99499.71;105681;1253;61046;-25
2023/03/17 02:56:03;;;;;;;4.90;2.60;;;;;;;-2.48;81.89;99498.78;105662;1257;61851;-25
2023/03/17 02:58:31;;;;;;;6.30;2.00;;;;;;;-2.24;81.57;99501.17;105720;1255;73470;-25
2023/03/17 03:01:01;;;;;;;5.30;1.70;;;;;;;-1.82;79.90;99499.73;105707;1253;75827;-26
2023/03/17 03:03:30;;;;;;;5.70;1.90;;;;;;;-1.68;78.57;99497.20;105685;1258;73174;-25
2023/03/17 03:06:02;;;;;;;4.90;2.40;;;;;;;-1.85;79.03;99499.80;105697;1257;61187;-25
2023/03/17 03:08:31;;;;;;;5.50;2.40;;;;;;;-2.06;79.58;99503.16;105705;1257;61890;-25
2023/03/17 03:11:01;;;;;;;9.00;2.50;;;;;;;-2.26;80.81;99508.89;105516;1253;73989;-25
2023/03/17 03:13:30;;;;;;;6.00;2.10;;;;;;;-2.42;81.02;99504.27;105598;1258;75695;-26
2023/03/17 03:15:59;;;;;;;3.10;1.40;;;;;;;-2.56;81.99;99504.56;105656;1254;73537;-25
2023/03/17 03:18:27;;;;;;;8.10;3.30;;;;;;;-2.02;80.67;99505.80;105555;1257;61087;-25
2023/03/17 03:20:58;;;;;;;4.50;1.40;;;;;;;-1.84;79.18;99499.80;105573;1257;61939;-25
2023/03/17 03:23:27;;;;;;;4.20;1.80;;;;;;;-1.79;78.54;99504.10;105491;1253;75058;-25
2023/03/17 03:26:01;;;;;;;3.50;1.70;;;;;;;-2.06;79.29;99510.81;105543;1254;75970;-26
2023/03/17 03:28:30;;;;;;;8.50;2.50;;;;;;;-2.28;80.01;99507.55;105783;1252;74217;-25
2023/03/17 03:30:59;;;;;;;5.10;2.40;;;;;;;-2.49;81.26;99508.67;105767;1253;61102;-25
2023/03/17 03:33:28;;;;;;;6.30;2.40;;;;;;;-2.71;82.05;99512.35;105760;1252;61010;-25
2023/03/17 03:35:56;;;;;;;5.70;2.30;;;;;;;-2.56;82.54;99510.17;105845;1253;74268;-25
2023/03/17 03:38:26;;;;;;;3.60;1.90;;;;;;;-2.00;80.20;99517.50;105892;1256;75770;-25
2023/03/17 03:40:55;;;;;;;5.70;2.20;;;;;;;-1.97;79.35;99517.09;105827;1253;74241;-26
2023/03/17 03:43:23;;;;;;;3.70;2.40;;;;;;;-2.09;79.56;99518.54;105902;1252;61039;-25
2023/03/17 03:45:53;;;;;;;4.60;2.30;;;;;;;-2.28;80.51;99520.15;105823;1255;61841;-25
2023/03/17 03:48:21;;;;;;;6.20;2.60;;;;;;;-2.48;81.20;99518.86;105753;1253;75351;-25
2023/03/17 03:50:55;;;;;;;4.20;1.70;;;;;;;-2.64;82.15;99522.73;105907;1254;75608;-25
2023/03/17 03:53:25;;;;;;;6.40;2.20;;;;;;;-2.50;82.10;99521.95;105691;1254;74363;-25
2023/03/17 03:55:57;;;;;;;10.60;3.40;;;;;;;-2.03;80.06;99523.36;105886;1253;61035;-25
2023/03/17 03:58:26;;;;;;;4.80;2.60;;;;;;;-2.04;79.63;99523.36;105749;1256;61103;-25
2023/03/17 04:00:56;;;;;;;5.50;1.80;;;;;;;-2.19;79.85;99522.85;105582;1253;75299;-25
2023/03/17 04:03:25;;;;;;;8.00;2.60;;;;;;;-2.41;80.62;99523.65;105866;1255;75865;-25
2023/03/17 04:05:54;;;;;;;3.90;1.60;;;;;;;-2.61;81.62;99522.34;105958;1256;73079;-25
2023/03/17 04:08:24;;;;;;;4.70;2.80;;;;;;;-2.76;82.36;99526.54;105855;1253;61159;-25
2023/03/17 04:10:53;;;;;;;2.80;1.90;;;;;;;-2.56;82.12;99528.36;105976;1253;61052;-25
2023/03/17 04:13:21;;;;;;;5.60;2.00;;;;;;;-2.12;80.33;99527.80;105945;1256;75536;-25
2023/03/17 04:15:51;;;;;;;10.80;2.80;;;;;;;-2.04;79.45;99537.84;105934;1253;75788;-25
2023/03/17 04:18:21;;;;;;;7.80;2.90;;;;;;;-2.21;79.88;99532.75;105869;1254;74151;-25
2023/03/17 04:20:49;;;;;;;5.50;2.20;;;;;;;-2.40;80.38;99535.70;106005;1252;61109;-25
2023/03/17 04:23:18;;;;;;;9.30;2.80;;;;;;;-2.56;81.06;99534.81;105894;1251;61640;-25
2023/03/17 04:25:49;;;;;;;4.60;1.80;;;;;;;-2.74;81.90;99529.56;105926;1252;75273;-25
2023/03/17 04:28:19;;;;;;;4.90;2.50;;;;;;;-2.68;82.00;99532.68;105591;1259;75832;-25
2023/03/17 04:30:48;;;;;;;4.10;2.00;;;;;;;-2.23;80.46;99536.88;105714;1253;74929;-25
2023/03/17 04:33:17;;;;;;;7.10;3.80;;;;;;;-1.95;78.85;99542.23;105688;1253;61506;-25
2023/03/17 04:35:46;;;;;;;5.70;2.10;;;;;;;-2.01;78.70;99538.61;105757;1253;61056;-25
2023/03/17 04:38:15;;;;;;;3.90;2.40;;;;;;;-2.15;78.80;99540.62;105876;1257;75316;-25
2023/03/17 04:40:43;;;;;;;6.00;2.70;;;;;;;-2.30;79.37;99539.57;105849;1259;74272;-25
2023/03/17 04:43:14;;;;;;;8.40;3.60;;;;;;;-2.45;79.84;99536.47;105842;1257;73516;-25
2023/03/17 04:45:42;;;;;;;6.70;2.50;;;;;;;-2.61;80.82;99533.37;105856;1253;61202;-25
2023/03/17 04:48:12;;;;;;;5.90;2.70;;;;;;;-2.45;80.56;99538.02;105924;1257;61380;-25
2023/03/17 04:50:41;;;;;;;7.70;2.80;;;;;;;-1.83;78.74;99536.52;105865;1253;74981;-25
2023/03/17 04:53:10;;;;;;;8.50;3.00;;;;;;;-1.48;76.55;99540.31;105704;1253;75944;-25
2023/03/17 04:55:40;;;;;;;4.10;1.80;;;;;;;-1.33;75.64;99545.57;105576;1253;73964;-25
2023/03/17 04:58:13;;;;;;;7.80;2.80;;;;;;;-1.57;75.80;99550.23;105718;1253;61141;-25
2023/03/17 05:00:58;;;;;;;4.70;3.10;;;;;;;-1.78;77.03;99559.73;105564;1255;61276;-25
2023/03/17 05:03:26;;;;;;;5.30;2.80;;;;;;;-1.69;76.81;99562.44;105710;1257;74159;-25
2023/03/17 05:06:00;;;;;;;7.80;3.00;;;;;;;-1.82;77.17;99563.23;105817;1253;74927;-26
2023/03/17 05:08:29;;;;;;;11.80;4.60;;;;;;;-1.92;77.75;99564.64;105645;1257;73274;-25
2023/03/17 05:10:57;;;;;;;12.40;3.90;;;;;;;-1.80;78.11;99568.28;105611;1259;62481;-25
2023/03/17 05:13:26;;;;;;;3.70;2.40;;;;;;;-1.34;76.40;99570.30;105647;1253;61236;-25
2023/03/17 05:15:55;;;;;;;7.60;2.90;;;;;;;-1.04;75.21;99578.95;105712;1253;73317;-25
2023/03/17 05:18:24;;;;;;;7.30;2.70;;;;;;;-1.08;74.73;99580.23;105790;1257;75232;-25
2023/03/17 05:20:53;;;;;;;3.70;2.70;;;;;;;-1.29;75.83;99583.46;105863;1253;74180;-25
2023/03/17 05:23:22;;;;;;;6.10;2.30;;;;;;;-1.44;76.12;99586.04;105754;1253;61077;-25
2023/03/17 05:25:56;;;;;;;10.20;3.80;;;;;;;-1.47;76.29;99591.55;105507;1258;61489;-25
2023/03/17 05:28:26;;;;;;;9.40;2.90;;;;;;;-1.67;77.02;99588.95;105763;1253;75678;-25
2023/03/17 05:30:55;;;;;;;8.90;3.30;;;;;;;-1.54;77.21;99588.64;105608;1259;75889;-25
2023/03/17 05:33:24;;;;;;;2.70;1.90;;;;;;;-1.61;77.12;99589.65;105522;1254;73936;-25
2023/03/17 05:35:53;;;;;;;5.40;2.90;;;;;;;-1.30;77.22;99595.07;105694;1253;62583;-25
2023/03/17 05:38:22;;;;;;;4.80;2.30;;;;;;;-0.94;75.15;99596.93;105672;1256;61899;-25
2023/03/17 05:40:53;;;;;;;11.20;3.50;;;;;;;-0.72;74.27;99602.16;105623;1253;75364;-25
2023/03/17 05:43:21;;;;;;;6.60;2.90;;;;;;;-0.82;74.62;99606.50;105746;1253;75834;-25
2023/03/17 05:45:50;;;;;;;7.60;2.80;;;;;;;-0.94;74.44;99606.14;105557;1253;74215;-25
2023/03/17 05:48:25;;;;;;;6.20;2.70;;;;;;;-0.98;75.10;99609.65;105644;1253;61133;-24
2023/03/17 05:50:53;;;;;;;9.70;3.40;;;;;;;-0.99;75.21;99615.29;105851;1259;61781;-24
2023/03/17 05:53:22;;;;;;;12.60;3.90;;;;;;;-0.90;74.80;99613.87;105604;1254;75248;-24
2023/03/17 05:55:51;;;;;;;7.50;2.40;;;;;;;-1.06;75.28;99615.61;105809;1253;75660;-24
2023/03/17 05:58:21;;;;;;;10.70;4.00;;;;;;;-1.05;75.70;99616.61;105883;1253;74531;-25
2023/03/17 06:00:55;;;;;;;5.90;2.40;;;;;;;-1.08;75.48;99619.77;105828;1253;61061;-24
2023/03/17 06:03:25;;;;;;;4.80;2.80;;;;;;;-0.81;75.44;99624.73;105853;1253;61867;-24
2023/03/17 06:05:54;;;;;;;5.60;2.50;;;;;;;-0.32;73.25;99623.94;105874;1253;75435;-24
2023/03/17 06:08:23;;;;;;;4.00;2.30;;;;;;;-0.19;73.19;99627.38;105795;1253;74966;-24
2023/03/17 06:10:53;;;;;;;6.50;2.80;;;;;;;-0.29;73.12;99632.59;105791;1253;74200;-24
2023/03/17 06:13:21;;;;;;;6.10;2.70;;;;;;;-0.23;72.18;99635.66;105749;1253;60994;-24
2023/03/17 06:15:52;;;;;;;11.00;3.70;;;;;;;-0.41;72.95;99638.52;105895;1257;61754;-25
2023/03/17 06:18:21;;;;;;;7.00;2.80;;;;;;;-0.60;73.89;99638.69;105804;1253;75342;-25
2023/03/17 06:20:52;;;;;;;9.90;3.80;;;;;;;-0.52;74.07;99642.40;105869;1253;75496;-25
2023/03/17 06:23:22;;;;;;;7.90;3.10;;;;;;;-0.62;74.03;99643.52;105734;1253;74135;-25
2023/03/17 06:25:50;;;;;;;5.10;2.40;;;;;;;-0.52;74.09;99645.48;105724;1253;61536;-24
2023/03/17 06:28:21;;;;;;;6.70;2.80;;;;;;;-0.55;73.39;99642.65;105851;1253;61908;-25
2023/03/17 06:30:50;;;;;;;5.30;2.40;;;;;;;-0.50;73.20;99643.55;105874;1253;75090;-25
2023/03/17 06:33:25;;;;;;;13.10;4.60;;;;;;;-0.05;72.51;99645.92;105844;1257;75640;-25
2023/03/17 06:35:54;;;;;;;7.70;3.60;;;;;;;0.48;70.34;99654.30;105720;1253;74153;-25
2023/03/17 06:38:23;;;;;;;5.90;2.20;;;;;;;0.56;68.81;99648.24;105668;1257;61638;-25
2023/03/17 06:40:52;;;;;;;7.80;3.10;;;;;;;0.76;69.12;99652.77;105765;1253;60981;-25
2023/03/17 06:43:23;;;;;;;11.50;3.20;;;;;;;0.72;69.97;99655.95;105671;1253;75405;-24
2023/03/17 06:45:55;;;;;;;5.30;2.40;;;;;;;0.74;69.65;99651.10;105768;1253;75851;-25
2023/03/17 06:48:24;;;;;;;7.70;2.50;;;;;;;0.55;69.57;99651.69;105551;1253;72853;-25
2023/03/17 06:50:52;;;;;;;8.40;3.80;;;;;;;0.64;68.83;99649.02;105550;1253;60978;-25
2023/03/17 06:53:22;;;;;;;7.30;2.80;;;;;;;0.58;68.81;99652.29;105528;1255;61815;-25
2023/03/17 06:55:51;;;;;;;6.60;2.20;;;;;;;0.71;68.66;99647.77;105919;1253;75415;-24
2023/03/17 06:58:19;;;;;;;7.10;2.60;;;;;;;0.74;69.05;99650.59;105848;1257;75364;-24
2023/03/17 07:00:52;;;;;;;6.40;1.50;;;;;;;0.83;67.58;99650.99;105770;1253;74261;-25
2023/03/17 07:03:22;;;;;;;11.20;4.80;;;;;;;0.80;67.36;99648.52;105746;1253;61150;-24
2023/03/17 07:05:52;;;;;;;7.20;2.70;;;;;;;0.89;67.32;99647.71;105812;1259;62559;-24
2023/03/17 07:08:20;;;;;;;8.20;2.90;;;;;;;1.10;68.37;99648.25;105723;1253;75496;-25
2023/03/17 07:10:50;;;;;;;6.70;2.50;;;;;;;1.26;68.09;99648.23;105901;1254;74760;-25
2023/03/17 07:13:19;;;;;;;7.30;2.20;;;;;;;1.06;65.67;99645.98;105828;1253;74230;-25
2023/03/17 07:15:48;;;;;;;9.50;2.30;;;;;;;1.13;66.44;99646.61;105638;1257;61130;-24
2023/03/17 07:18:19;;;;;;;3.60;1.60;;;;;;;1.23;65.36;99645.95;105739;1258;61812;-25
2023/03/17 07:20:49;;;;;;;5.60;2.00;;;;;;;1.30;65.03;99646.58;105822;1253;75414;-24
2023/03/17 07:23:20;;;;;;;4.80;1.60;;;;;;;1.37;65.19;99648.90;105909;1258;75999;-25
2023/03/17 07:25:49;;;;;;;4.40;1.50;;;;;;;1.66;65.02;99651.52;105560;1260;74296;-25
2023/03/17 07:28:20;;;;;;;9.50;2.50;;;;;;;1.84;64.17;99654.32;105673;1253;61131;-25
2023/03/17 07:30:52;;;;;;;7.20;1.70;;;;;;;1.84;62.96;99659.45;105593;1253;61146;-25
2023/03/17 07:33:20;;;;;;;3.80;1.40;;;;;;;1.79;61.98;99658.77;105870;1253;75353;-25
2023/03/17 07:35:49;;;;;;;4.60;1.80;;;;;;;1.94;61.45;99661.15;105887;1257;75708;-25
2023/03/17 07:38:18;;;;;;;9.10;2.10;;;;;;;2.01;60.64;99662.94;105744;1253;74104;-25
2023/03/17 07:40:47;;;;;;;2.60;1.40;;;;;;;1.99;60.59;99669.70;105792;1253;61117;-25
2023/03/17 07:43:18;;;;;;;7.30;1.90;;;;;;;2.14;60.15;99673.64;105717;1253;61793;-25
2023/03/17 07:45:46;;;;;;;4.50;1.20;;;;;;;2.32;59.21;99672.95;105699;1253;74998;-25
2023/03/17 07:48:17;;;;;;;5.40;1.80;;;;;;;2.48;59.64;99673.21;105680;1254;74367;-25
2023/03/17 07:50:47;;;;;;;3.80;1.30;;;;;;;2.52;58.25;99675.30;105838;1253;74001;-25
2023/03/17 07:53:15;;;;;;;3.80;1.20;;;;;;;2.46;56.31;99675.17;105768;1253;61161;-25
2023/03/17 07:55:47;;;;;;;9.20;3.30;;;;;;;2.62;57.38;99677.98;105851;1253;61584;-25
2023/03/17 07:58:17;;;;;;;4.50;1.90;;;;;;;2.67;57.12;99682.27;105786;1253;74971;-25
2023/03/17 08:00:47;;;;;;;4.10;2.00;;;;;;;2.69;56.13;99680.84;105825;1253;75551;-24
2023/03/17 08:03:16;;;;;;;8.30;1.60;;;;;;;2.85;55.40;99679.68;105834;1258;72279;-33
2023/03/17 08:05:54;;;;;;;5.10;1.50;;;;;;;2.96;55.32;99683.22;105799;1254;61060;-25
2023/03/17 08:08:26;;;;;;;4.00;1.60;;;;;;;3.02;55.29;99685.71;105737;1254;61620;-24
2023/03/17 08:11:02;;;;;;;3.90;2.00;;;;;;;3.12;55.11;99683.23;105916;1253;75373;-23
2023/03/17 08:13:31;;;;;;;5.00;1.50;;;;;;;3.06;53.51;99682.30;105695;1260;75886;-23
2023/03/17 08:16:00;;;;;;;2.70;1.30;;;;;;;3.16;53.47;99685.13;105893;1253;72901;-23
2023/03/17 08:18:30;;;;;;;3.80;1.70;;;;;;;3.54;55.96;99682.03;105862;1253;61238;-22
2023/03/17 08:20:59;;;;;;;8.20;2.20;;;;;;;3.54;54.30;99682.40;105918;1259;62052;-23
2023/03/17 08:23:28;;;;;;;3.80;1.20;;;;;;;3.67;53.72;99682.37;105787;1259;75374;-24
2023/03/17 08:25:58;;;;;;;7.30;1.50;;;;;;;3.48;53.96;99680.57;105810;1254;75836;-23
2023/03/17 08:28:29;;;;;;;1.50;1.00;;;;;;;3.59;54.38;99677.56;105658;1254;74163;-24
2023/03/17 08:31:08;;;;;;;4.70;1.60;;;;;;;3.64;54.42;99681.30;105800;1253;61171;-24
2023/03/17 08:33:41;;;;;;;5.00;1.00;;;;;;;3.57;54.16;99678.33;105664;1259;61697;-24
2023/03/17 08:36:10;;;;;;;3.80;1.00;;;;;;;3.60;52.91;99678.69;105900;1253;75467;-23
2023/03/17 08:38:39;;;;;;;7.40;6.00;;;;;;;3.98;54.23;99680.54;105685;1258;76174;-24
2023/03/17 08:41:11;;;;;;;2.40;1.10;;;;;;;4.18;53.52;99682.41;105727;1257;73199;-26
2023/03/17 08:43:40;;;;;;;4.90;1.40;;;;;;;4.09;53.73;99684.48;105452;1253;61853;-23
2023/03/17 08:46:22;;;;;;;22.60;14.10;;;;;;;4.42;53.76;99682.52;105703;1258;61590;-25
2023/03/17 08:48:55;;;;;;;4.30;1.40;;;;;;;4.59;53.20;99684.47;105711;1254;75141;-25
2023/03/17 08:51:25;;;;;;;4.30;1.60;;;;;;;4.55;52.87;99679.66;105712;1258;75699;-24
2023/03/17 08:53:59;;;;;;;5.40;1.40;;;;;;;4.29;51.39;99680.05;105657;1253;74157;-25
2023/03/17 08:56:29;;;;;;;4.10;1.40;;;;;;;4.63;52.05;99668.87;105753;1258;61652;-25
2023/03/17 08:58:57;;;;;;;4.30;1.20;;;;;;;4.69;51.37;99674.90;105848;1253;61110;-25
2023/03/17 09:01:26;;;;;;;3.60;1.10;;;;;;;4.38;51.83;99669.29;105885;1254;75229;-25
2023/03/17 09:03:55;;;;;;;111.40;62.40;;;;;;;4.45;53.01;99679.45;105853;1253;75812;-24
2023/03/17 09:06:24;;;;;;;5.40;2.70;;;;;;;4.84;50.63;99679.89;105776;1253;73972;-24
2023/03/17 09:08:55;;;;;;;7.90;3.30;;;;;;;5.13;50.71;99674.40;105822;1253;61870;-24
2023/03/17 09:11:26;;;;;;;5.40;2.10;;;;;;;4.97;51.05;99675.68;105626;1259;61849;-24
2023/03/17 09:13:58;;;;;;;;;;;;;;;5.04;50.37;99671.20;105648;1253;75218;-25
2023/03/17 09:16:32;;;;;;;2.70;0.90;;;;;;;5.32;49.43;99672.58;105843;1253;74799;-24
2023/03/17 09:19:02;;;;;;;4.20;1.60;;;;;;;5.53;48.83;99673.24;105866;1257;74189;-24
2023/03/17 09:21:31;;;;;;;10.10;4.00;;;;;;;5.17;47.22;99676.78;105808;1266;61500;-24
2023/03/17 09:24:00;;;;;;;4.80;1.60;;;;;;;4.88;46.44;99680.03;105776;1254;61889;-24
2023/03/17 09:26:30;;;;;;;4.00;1.70;;;;;;;5.35;46.83;99671.94;105656;1256;74115;-25
2023/03/17 09:28:59;;;;;;;2.10;1.10;;;;;;;5.61;46.82;99666.16;105806;1253;75600;-24
2023/03/17 09:31:31;;;;;;;3.20;1.10;;;;;;;5.67;46.66;99672.74;105783;1255;74271;-24
2023/03/17 09:34:06;;;;;;;5.20;1.90;;;;;;;5.63;45.89;99671.59;105534;1253;61949;-24
2023/03/17 09:36:36;;;;;;;7.30;2.90;;;;;;;5.74;44.88;99666.70;105946;1256;62020;-24
2023/03/17 09:39:05;;;;;;;4.00;1.30;;;;;;;6.02;44.20;99670.12;105801;1253;74138;-24
2023/03/17 09:42:13;;;;;;;3.70;1.20;;;;;;;6.01;43.94;99666.38;105901;1253;75690;-24
2023/03/17 09:45:13;;;;;;;4.10;1.40;;;;;;;5.98;44.47;99670.66;105588;1254;74288;-24
2023/03/17 09:47:58;;;;;;;4.60;1.40;;;;;;;6.16;44.38;99663.19;105824;1256;61155;-24
2023/03/17 09:50:34;;;;;;;1.80;0.90;;;;;;;6.02;45.01;99659.95;105542;1260;61093;-24
2023/03/17 09:53:03;;;;;;;3.00;1.30;;;;;;;6.46;43.03;99659.69;105703;1254;75367;-24
2023/03/17 09:55:32;;;;;;;3.70;0.90;;;;;;;6.29;42.23;99655.56;105854;1258;76449;-24
2023/03/17 09:58:02;;;;;;;3.70;1.80;;;;;;;6.75;42.96;99649.67;105727;1253;74076;-24
2023/03/17 10:00:31;;;;;;;3.90;1.20;;;;;;;6.84;43.33;99650.86;105780;1253;61904;-24
2023/03/17 10:03:00;;;;;;;5.50;2.10;;;;;;;6.65;41.67;99650.01;105774;1251;60988;-24
2023/03/17 10:05:39;;;;;;;11.10;5.30;;;;;;;6.97;41.74;99652.56;105733;1259;75324;-24
2023/03/17 10:08:12;;;;;;;4.20;1.30;;;;;;;6.80;40.96;99646.06;105756;1259;74706;-25
2023/03/17 10:11:03;;;;;;;2.90;0.80;;;;;;;6.92;42.04;99645.75;105599;1257;74390;-24
2023/03/17 10:13:46;;;;;;;0.90;0.50;;;;;;;6.95;41.14;99643.86;105658;1267;62010;-24
2023/03/17 10:16:17;;;;;;;1.30;0.60;;;;;;;6.75;41.53;99636.54;105536;1258;61906;-24
2023/03/17 10:18:51;;;;;;;2.00;1.00;;;;;;;6.76;40.89;99640.25;105650;1260;75095;-24
2023/03/17 10:21:23;;;;;;;4.70;1.50;;;;;;;6.65;42.40;99636.70;105548;1254;75783;-24
2023/03/17 10:23:53;;;;;;;4.50;1.00;;;;;;;6.78;41.36;99636.56;105680;1257;73169;-23
2023/03/17 10:26:26;;;;;;;1.90;1.10;;;;;;;6.89;41.36;99634.20;105870;1254;61881;-23
2023/03/17 10:28:54;;;;;;;7.70;2.00;;;;;;;6.28;41.78;99632.20;105715;1253;61017;-24
2023/03/17 10:31:28;;;;;;;4.00;1.10;;;;;;;5.70;42.86;99634.20;105880;1255;74359;-23
2023/03/17 10:34:10;;;;;;;4.40;1.30;;;;;;;5.66;42.89;99628.89;105645;1258;75979;-23
2023/03/17 10:36:44;;;;;;;3.00;1.40;;;;;;;6.14;41.03;99629.33;105661;1253;74117;-23
2023/03/17 10:39:17;;;;;;;1.50;0.80;;;;;;;6.46;40.50;99632.77;105711;1259;61943;-23
2023/03/17 10:41:52;;;;;;;6.10;1.90;;;;;;;6.27;40.14;99630.16;105442;1259;61780;-23
2023/03/17 10:44:39;;;;;;;2.70;1.60;;;;;;;6.76;41.70;99621.79;105878;1253;75163;-23
2023/03/17 10:47:36;;;;;;;3.10;1.20;;;;;;;6.81;41.73;99623.45;105655;1258;76234;-23
2023/03/17 10:50:15;;;;;;;3.30;1.30;;;;;;;7.09;41.18;99627.21;105662;1259;74230;-23
2023/03/17 10:52:52;;;;;;;30.40;15.80;;;;;;;7.26;38.44;99623.65;105724;1257;61910;-23
2023/03/17 10:55:21;;;;;;;4.60;2.30;;;;;;;7.49;39.27;99622.63;105738;1258;61878;-23
2023/03/17 10:58:04;;;;;;;49.70;32.00;;;;;;;6.73;35.81;99618.17;105721;1256;74852;-23
2023/03/17 11:00:36;;;;;;;47.00;19.00;;;;;;;6.63;36.16;99614.40;105733;1257;74863;-23
2023/03/17 11:03:15;;;;;;;39.30;24.20;;;;;;;7.41;37.46;99615.66;105688;1253;74062;-25
2023/03/17 11:06:01;;;;;;;14.40;9.60;;;;;;;7.20;37.68;99610.17;105443;1256;62097;-23
2023/03/17 11:08:37;;;;;;;18.70;7.90;;;;;;;7.39;35.95;99613.40;105731;1254;61002;-24
2023/03/17 11:11:20;;;;;;;27.90;15.00;;;;;;;6.63;33.36;99608.73;105649;1260;75231;-24
2023/03/17 11:13:49;;;;;;;17.90;11.20;;;;;;;7.10;33.76;99607.12;105725;1253;73754;-24
2023/03/17 11:16:22;;;;;;;3.30;1.20;;;;;;;7.39;36.49;99607.83;105947;1256;74172;-24
2023/03/17 11:18:56;;;;;;;1.10;0.80;;;;;;;7.42;37.69;99603.84;105559;1256;62054;-25
2023/03/17 11:21:29;;;;;;;4.80;3.60;;;;;;;7.38;37.69;99608.06;105698;1258;61561;-24
2023/03/17 11:24:17;;;;;;;6.50;1.60;;;;;;;7.07;36.60;99605.71;105695;1269;75391;-24
2023/03/17 11:26:54;;;;;;;5.10;2.40;;;;;;;7.61;35.85;99600.99;105486;1259;75823;-24
2023/03/17 11:29:45;;;;;;;5.50;1.60;;;;;;;7.17;34.61;99593.23;105741;1257;73031;-25
2023/03/17 11:32:28;;;;;;;1.30;1.00;;;;;;;7.20;34.88;99600.50;105836;1257;61882;-24
2023/03/17 11:35:26;;;;;;;74.00;34.80;;;;;;;6.76;34.19;99596.23;105663;1257;61898;-24
2023/03/17 11:38:27;;;;;;;4.60;1.50;;;;;;;7.34;35.01;99597.60;105685;1260;75356;-24
2023/03/17 11:41:11;;;;;;;14.60;5.90;;;;;;;7.16;34.74;99591.04;105743;1254;75645;-24
2023/03/17 11:43:50;;;;;;;3.90;1.80;;;;;;;7.05;34.78;99591.68;104155;1257;2123419;-24
2023/03/17 11:46:28;;;;;;;3.20;1.20;;;;;;;7.01;34.43;99594.17;105945;1256;61800;-24
2023/03/17 11:49:19;;;;;;;5.00;1.70;;;;;;;6.72;35.39;99597.35;105731;1257;61155;-24
2023/03/17 11:52:02;;;;;;;3.00;1.20;;;;;;;6.32;36.80;99592.11;105658;1259;74347;-24